createdAt,value
2023-05-17T00:00:58.478Z,100154.55
2023-05-17T00:03:25.275Z,100161.42
2023-05-17T00:05:52.648Z,100157.86
2023-05-17T00:08:19.314Z,100158.73
2023-05-17T00:10:46.040Z,100162.70
2023-05-17T00:13:12.894Z,100161.46
2023-05-17T00:15:39.604Z,100159.16
2023-05-17T00:18:06.312Z,100162.90
2023-05-17T00:20:34.114Z,100163.22
2023-05-17T00:23:00.736Z,100163.63
2023-05-17T00:25:27.739Z,100167.23
2023-05-17T00:27:55.090Z,100169.52
2023-05-17T00:30:21.873Z,100169.42
2023-05-17T00:32:49.142Z,100164.81
2023-05-17T00:35:15.985Z,100167.85
2023-05-17T00:37:47.078Z,100170.55
2023-05-17T00:40:15.034Z,100167.17
2023-05-17T00:42:42.059Z,100166.23
2023-05-17T00:45:10.167Z,100168.02
2023-05-17T00:47:37.476Z,100169.38
2023-05-17T00:50:05.647Z,100172.73
2023-05-17T00:52:32.571Z,100173.80
2023-05-17T00:54:59.286Z,100171.83
2023-05-17T00:57:26.397Z,100175.17
2023-05-17T00:59:54.809Z,100172.05
2023-05-17T01:02:21.893Z,100173.56
2023-05-17T01:04:49.472Z,100175.12
2023-05-17T01:07:17.375Z,100176.10
2023-05-17T01:09:47.114Z,100173.90
2023-05-17T01:12:13.973Z,100173.55
2023-05-17T01:14:53.750Z,100170.42
2023-05-17T01:17:25.032Z,100169.54
2023-05-17T01:20:05.948Z,100168.14
2023-05-17T01:22:39.641Z,100170.99
2023-05-17T01:25:17.273Z,100172.60
2023-05-17T01:27:44.970Z,100179.67
2023-05-17T01:30:12.970Z,100176.13
2023-05-17T01:32:41.361Z,100173.88
2023-05-17T01:35:10.122Z,100177.10
2023-05-17T01:37:38.230Z,100176.60
2023-05-17T01:40:06.691Z,100177.07
2023-05-17T01:42:33.513Z,100174.91
2023-05-17T01:45:00.658Z,100181.61
2023-05-17T01:47:36.222Z,100187.12
2023-05-17T01:50:03.203Z,100181.80
2023-05-17T01:52:35.503Z,100179.55
2023-05-17T01:55:05.573Z,100181.21
2023-05-17T01:57:35.555Z,100182.02
2023-05-17T02:00:05.995Z,100183.91
2023-05-17T02:02:42.265Z,100179.13
2023-05-17T02:05:09.430Z,100180.02
2023-05-17T02:07:41.092Z,100177.83
2023-05-17T02:10:08.833Z,100178.90
2023-05-17T02:12:36.380Z,100183.52
2023-05-17T02:15:04.350Z,100182.76
2023-05-17T02:17:32.367Z,100181.77
2023-05-17T02:19:59.094Z,100187.22
2023-05-17T02:22:25.677Z,100187.25
2023-05-17T02:24:52.379Z,100186.58
2023-05-17T02:27:19.283Z,100188.05
2023-05-17T02:29:46.088Z,100190.11
2023-05-17T02:32:12.989Z,100193.46
2023-05-17T02:34:39.637Z,100190.60
2023-05-17T02:37:06.495Z,100186.61
2023-05-17T02:39:33.235Z,100187.60
2023-05-17T02:42:00.025Z,100189.77
2023-05-17T02:44:26.742Z,100193.92
2023-05-17T02:46:53.505Z,100193.89
2023-05-17T02:49:20.161Z,100196.13
2023-05-17T02:51:47.290Z,100197.52
2023-05-17T02:54:14.023Z,100200.21
2023-05-17T02:56:40.853Z,100196.70
2023-05-17T02:59:07.792Z,100198.36
2023-05-17T03:01:36.080Z,100204.65
2023-05-17T03:04:03.718Z,100204.02
2023-05-17T03:06:31.199Z,100209.47
2023-05-17T03:08:58.664Z,100210.40
2023-05-17T03:11:26.251Z,100212.64
2023-05-17T03:13:55.004Z,100208.92
2023-05-17T03:16:25.882Z,100213.52
2023-05-17T03:18:52.996Z,100212.27
2023-05-17T03:21:20.889Z,100211.89
2023-05-17T03:23:48.325Z,100215.52
2023-05-17T03:26:15.668Z,100214.64
2023-05-17T03:28:47.117Z,100214.54
2023-05-17T03:31:14.296Z,100215.14
2023-05-17T03:33:41.695Z,100219.55
2023-05-17T03:36:08.768Z,100221.36
2023-05-17T03:38:35.649Z,100229.05
2023-05-17T03:41:03.102Z,100233.81
2023-05-17T03:43:30.199Z,100234.31
2023-05-17T03:45:58.180Z,100234.58
2023-05-17T03:48:25.058Z,100235.27
2023-05-17T03:50:52.693Z,100231.77
2023-05-17T03:53:19.295Z,100235.11
2023-05-17T03:55:46.050Z,100241.73
2023-05-17T03:58:13.059Z,100244.22
2023-05-17T04:00:40.847Z,100252.81
2023-05-17T04:03:10.216Z,100256.15
2023-05-17T04:05:37.620Z,100258.77
2023-05-17T04:08:04.753Z,100260.07
2023-05-17T04:10:31.701Z,100263.08
2023-05-17T04:12:58.358Z,100259.79
2023-05-17T04:15:25.868Z,100256.33
2023-05-17T04:17:54.928Z,100254.82
2023-05-17T04:20:21.682Z,100258.38
2023-05-17T04:22:48.717Z,100261.61
2023-05-17T04:25:16.521Z,100266.73
2023-05-17T04:27:45.960Z,100261.91
2023-05-17T04:30:14.194Z,100269.75
2023-05-17T04:32:43.274Z,100268.67
2023-05-17T04:35:11.296Z,100270.64
2023-05-17T04:37:39.768Z,100267.20
2023-05-17T04:40:14.235Z,100271.41
2023-05-17T04:42:42.099Z,100270.13
2023-05-17T04:45:09.776Z,100271.90
2023-05-17T04:47:37.176Z,100268.59
2023-05-17T04:50:04.609Z,100275.09
2023-05-17T04:54:32.548Z,100283.43
2023-05-17T04:57:00.702Z,100283.46
2023-05-17T04:59:50.354Z,100284.39
2023-05-17T05:02:17.624Z,100289.52
2023-05-17T05:04:44.756Z,100290.84
2023-05-17T05:07:12.270Z,100290.33
2023-05-17T05:09:39.581Z,100291.55
2023-05-17T05:12:07.035Z,100292.98
2023-05-17T05:14:34.938Z,100292.77
2023-05-17T05:17:02.096Z,100301.88
2023-05-17T05:19:29.691Z,100295.98
2023-05-17T05:21:57.789Z,100300.83
2023-05-17T05:24:24.537Z,100302.17
2023-05-17T05:26:51.477Z,100300.61
2023-05-17T05:29:19.233Z,100304.02
2023-05-17T05:31:46.450Z,100302.81
2023-05-17T05:34:14.021Z,100302.05
2023-05-17T05:36:41.504Z,100305.41
2023-05-17T05:39:09.936Z,100307.55
2023-05-17T05:41:37.600Z,100314.70
2023-05-17T05:44:04.620Z,100312.39
2023-05-17T05:46:31.420Z,100316.15
2023-05-17T05:48:58.331Z,100313.37
2023-05-17T05:51:25.795Z,100313.26
2023-05-17T05:53:52.740Z,100315.06
2023-05-17T05:56:22.178Z,100317.95
2023-05-17T05:58:50.571Z,100322.07
2023-05-17T06:01:17.798Z,100321.06
2023-05-17T06:03:44.598Z,100317.95
2023-05-17T06:06:11.520Z,100318.13
2023-05-17T06:08:38.377Z,100320.61
2023-05-17T06:11:05.230Z,100319.23
2023-05-17T06:13:32.000Z,100318.77
2023-05-17T06:15:59.730Z,100319.56
2023-05-17T06:18:26.778Z,100319.98
2023-05-17T06:20:53.625Z,100321.23
2023-05-17T06:23:20.546Z,100327.77
2023-05-17T06:25:47.330Z,100323.30
2023-05-17T06:28:14.094Z,100326.45
2023-05-17T06:30:41.178Z,100326.33
2023-05-17T06:33:08.717Z,100330.54
2023-05-17T06:35:47.889Z,100330.48
2023-05-17T06:38:23.415Z,100330.52
2023-05-17T06:40:57.481Z,100333.34
2023-05-17T06:43:25.634Z,100328.91
2023-05-17T06:45:52.853Z,100331.90
2023-05-17T06:48:19.847Z,100333.64
2023-05-17T06:50:46.887Z,100336.70
2023-05-17T06:53:13.884Z,100332.16
2023-05-17T06:55:41.542Z,100336.03
2023-05-17T06:58:08.377Z,100334.86
2023-05-17T07:00:39.142Z,100330.45
2023-05-17T07:03:06.069Z,100327.02
2023-05-17T07:05:33.312Z,100328.38
2023-05-17T07:08:00.761Z,100330.27
2023-05-17T07:10:27.685Z,100327.86
2023-05-17T07:12:54.529Z,100327.92
2023-05-17T07:15:21.390Z,100329.17
2023-05-17T07:17:48.271Z,100328.10
2023-05-17T07:20:15.559Z,100328.60
2023-05-17T07:22:42.500Z,100328.52
2023-05-17T07:25:10.478Z,100330.56
2023-05-17T07:27:37.312Z,100329.76
2023-05-17T07:30:04.503Z,100326.93
2023-05-17T07:32:31.360Z,100330.20
2023-05-17T07:34:58.276Z,100329.23
2023-05-17T07:37:25.075Z,100334.23
2023-05-17T07:39:52.097Z,100340.52
2023-05-17T07:42:18.907Z,100336.06
2023-05-17T07:44:49.087Z,100335.79
2023-05-17T07:47:17.749Z,100333.43
2023-05-17T07:49:45.015Z,100334.91
2023-05-17T07:52:11.888Z,100336.12
2023-05-17T07:54:38.819Z,100336.67
2023-05-17T07:57:05.709Z,100335.63
2023-05-17T07:59:32.471Z,100341.68
2023-05-17T08:01:59.255Z,100340.17
2023-05-17T08:04:26.287Z,100342.31
2023-05-17T08:06:55.561Z,100341.92
2023-05-17T08:09:22.369Z,100343.77
2023-05-17T08:11:49.249Z,100343.80
2023-05-17T08:14:16.439Z,100342.27
2023-05-17T08:16:43.973Z,100349.41
2023-05-17T08:19:13.076Z,100348.04
2023-05-17T08:21:41.072Z,100348.92
2023-05-17T08:24:08.355Z,100347.85
2023-05-17T08:26:35.178Z,100351.84
2023-05-17T08:29:02.701Z,100350.91
2023-05-17T08:31:29.952Z,100352.73
2023-05-17T08:33:56.885Z,100346.05
2023-05-17T08:36:23.834Z,100348.60
2023-05-17T08:38:51.905Z,100347.37
2023-05-17T08:41:19.570Z,100347.34
2023-05-17T08:43:47.307Z,100346.88
2023-05-17T08:46:14.085Z,100346.91
2023-05-17T08:48:42.106Z,100346.17
2023-05-17T08:51:12.262Z,100349.20
2023-05-17T08:53:39.067Z,100349.39
2023-05-17T08:56:07.132Z,100350.29
2023-05-17T08:58:48.056Z,100350.89
2023-05-17T09:01:18.997Z,100354.60
2023-05-17T09:03:54.749Z,100355.50
2023-05-17T09:06:22.293Z,100354.11
2023-05-17T09:08:53.296Z,100357.08
2023-05-17T09:11:27.966Z,100352.95
2023-05-17T09:14:01.524Z,100357.80
2023-05-17T09:16:29.668Z,100353.50
2023-05-17T09:18:57.526Z,100354.70
2023-05-17T09:21:25.148Z,100354.75
2023-05-17T09:24:04.710Z,100357.41
2023-05-17T09:26:39.858Z,100358.88
2023-05-17T09:29:14.224Z,100360.27
2023-05-17T09:31:41.486Z,100360.28
2023-05-17T09:34:08.772Z,100367.98
2023-05-17T09:36:37.805Z,100365.14
2023-05-17T09:39:06.344Z,100368.88
2023-05-17T09:41:34.101Z,100365.78
2023-05-17T09:44:01.599Z,100363.31
2023-05-17T09:46:29.117Z,100359.00
2023-05-17T09:48:56.931Z,100358.61
2023-05-17T09:51:33.950Z,100358.39
2023-05-17T09:54:00.810Z,100355.63
2023-05-17T09:56:30.964Z,100355.46
2023-05-17T09:59:01.571Z,100352.23
2023-05-17T10:01:29.360Z,100349.65
2023-05-17T10:03:59.658Z,100348.34
2023-05-17T10:06:38.975Z,100347.35
2023-05-17T10:09:16.036Z,100344.88
2023-05-17T10:11:46.848Z,100342.42
2023-05-17T10:14:22.989Z,100344.23
2023-05-17T10:16:50.987Z,100346.00
2023-05-17T10:19:20.252Z,100344.00
2023-05-17T10:21:51.060Z,100341.46
2023-05-17T10:24:17.905Z,100340.53
2023-05-17T10:26:44.670Z,100339.23
2023-05-17T10:29:11.751Z,100338.89
2023-05-17T10:31:38.585Z,100336.25
2023-05-17T10:34:06.521Z,100341.90
2023-05-17T10:36:33.881Z,100341.65
2023-05-17T10:39:00.889Z,100340.92
2023-05-17T10:41:30.503Z,100344.36
2023-05-17T10:43:57.892Z,100342.58
2023-05-17T10:46:24.971Z,100343.09
2023-05-17T10:48:52.656Z,100341.54
2023-05-17T10:51:37.795Z,100341.42
2023-05-17T10:54:05.414Z,100340.15
2023-05-17T10:56:32.858Z,100338.52
2023-05-17T10:59:24.306Z,100336.98
2023-05-17T11:02:04.805Z,100332.02
2023-05-17T11:04:38.793Z,100334.63
2023-05-17T11:07:29.311Z,100331.22
2023-05-17T11:10:06.336Z,100332.84
2023-05-17T11:12:43.219Z,100331.41
2023-05-17T11:15:14.294Z,100334.14
2023-05-17T11:17:44.631Z,100341.56
2023-05-17T11:20:16.454Z,100336.55
2023-05-17T11:23:16.502Z,100340.02
2023-05-17T11:25:43.407Z,100337.14
2023-05-17T11:28:18.433Z,100340.17
2023-05-17T11:30:51.488Z,100338.08
2023-05-17T11:33:33.294Z,100332.04
2023-05-17T11:36:05.590Z,100332.42
2023-05-17T11:38:33.134Z,100335.11
2023-05-17T11:41:26.592Z,100331.23
2023-05-17T11:43:53.674Z,100332.11
2023-05-17T11:46:22.622Z,100332.85
2023-05-17T11:48:53.941Z,100334.61
2023-05-17T11:51:23.875Z,100339.31
2023-05-17T11:53:55.336Z,100335.52
2023-05-17T11:56:41.885Z,100335.61
2023-05-17T11:59:11.292Z,100336.47
2023-05-17T12:01:51.133Z,100334.06
2023-05-17T12:04:27.709Z,100332.45
2023-05-17T12:06:54.873Z,100335.52
2023-05-17T12:09:26.514Z,100330.81
2023-05-17T12:11:53.503Z,100325.25
2023-05-17T12:14:23.206Z,100323.02
2023-05-17T12:16:54.094Z,100319.91
2023-05-17T12:19:22.290Z,100315.21
2023-05-17T12:21:50.005Z,100310.80
2023-05-17T12:24:17.055Z,100310.17
2023-05-17T12:26:45.146Z,100309.67
2023-05-17T12:29:12.234Z,100309.05
2023-05-17T12:31:44.165Z,100304.05
2023-05-17T12:34:12.879Z,100300.98
2023-05-17T12:36:40.581Z,100295.17
2023-05-17T12:39:09.942Z,100294.31
2023-05-17T12:41:37.266Z,100292.66
2023-05-17T12:44:14.609Z,100292.64
2023-05-17T12:46:42.350Z,100291.28
2023-05-17T12:49:09.426Z,100282.66
2023-05-17T12:51:46.208Z,100282.13
2023-05-17T12:54:16.309Z,100278.60
2023-05-17T12:56:46.618Z,100280.64
2023-05-17T12:59:17.316Z,100279.92
2023-05-17T13:01:45.918Z,100275.85
2023-05-17T13:04:13.501Z,100275.26
2023-05-17T13:06:43.598Z,100272.31
2023-05-17T13:09:10.507Z,100274.50
2023-05-17T13:11:41.328Z,100271.23
2023-05-17T13:14:09.079Z,100271.26
2023-05-17T13:16:39.602Z,100271.54
2023-05-17T13:19:14.548Z,100269.73
2023-05-17T13:21:41.555Z,100266.56
2023-05-17T13:24:09.511Z,100267.48
2023-05-17T13:26:36.330Z,100263.96
2023-05-17T13:29:03.310Z,100268.95
2023-05-17T13:31:30.090Z,100268.61
2023-05-17T13:33:57.119Z,100268.48
2023-05-17T13:36:24.227Z,100272.85
2023-05-17T13:38:51.160Z,100268.40
2023-05-17T13:41:18.054Z,100269.90
2023-05-17T13:43:44.906Z,100271.16
2023-05-17T13:46:11.779Z,100270.84
2023-05-17T13:48:40.463Z,100271.33
2023-05-17T13:51:10.129Z,100272.47
2023-05-17T13:53:38.816Z,100271.14
2023-05-17T13:56:06.105Z,100269.79
2023-05-17T13:58:33.506Z,100273.27
2023-05-17T14:01:00.756Z,100271.73
2023-05-17T14:03:27.948Z,100272.78
2023-05-17T14:05:54.938Z,100276.89
2023-05-17T14:08:21.806Z,100274.48
2023-05-17T14:10:48.658Z,100274.85
2023-05-17T14:13:15.544Z,100275.75
2023-05-17T14:15:42.343Z,100274.12
2023-05-17T14:18:09.798Z,100269.45
2023-05-17T14:20:36.653Z,100267.92
2023-05-17T14:23:03.576Z,100264.59
2023-05-17T14:25:30.441Z,100265.70
2023-05-17T14:27:57.231Z,100262.45
2023-05-17T14:30:24.168Z,100261.36
2023-05-17T14:32:50.993Z,100256.61
2023-05-17T14:35:17.825Z,100253.93
2023-05-17T14:37:44.683Z,100254.44
2023-05-17T14:40:15.067Z,100249.41
2023-05-17T14:42:54.776Z,100248.14
2023-05-17T14:45:25.068Z,100245.87
2023-05-17T14:47:52.850Z,100242.31
2023-05-17T14:50:19.732Z,100244.46
2023-05-17T14:52:46.654Z,100240.54
2023-05-17T14:55:16.404Z,100243.36
2023-05-17T14:57:43.860Z,100238.19
2023-05-17T15:00:11.500Z,100236.89
2023-05-17T15:02:38.455Z,100235.31
2023-05-17T15:05:06.287Z,100239.09
2023-05-17T15:07:34.723Z,100236.05
2023-05-17T15:10:04.329Z,100235.82
2023-05-17T15:12:32.275Z,100230.93
2023-05-17T15:14:59.119Z,100232.05
2023-05-17T15:17:26.038Z,100232.86
2023-05-17T15:19:54.040Z,100232.73
2023-05-17T15:22:21.001Z,100232.70
2023-05-17T15:24:47.828Z,100230.55
2023-05-17T15:27:17.217Z,100230.85
2023-05-17T15:29:44.225Z,100233.58
2023-05-17T15:32:11.323Z,100234.09
2023-05-17T15:34:38.134Z,100228.44
2023-05-17T15:37:04.924Z,100228.14
2023-05-17T15:39:32.123Z,100228.42
2023-05-17T15:41:58.963Z,100228.20
2023-05-17T15:44:25.837Z,100229.20
2023-05-17T15:46:52.808Z,100224.06
2023-05-17T15:49:19.737Z,100219.03
2023-05-17T15:51:47.171Z,100220.06
2023-05-17T15:54:17.283Z,100224.23
2023-05-17T15:56:44.078Z,100224.60
2023-05-17T15:59:10.894Z,100222.84
2023-05-17T16:01:37.738Z,100220.55
2023-05-17T16:04:04.723Z,100219.98
2023-05-17T16:06:36.026Z,100221.20
2023-05-17T16:09:03.135Z,100224.85
2023-05-17T16:11:30.068Z,100224.67
2023-05-17T16:13:57.296Z,100227.30
2023-05-17T16:16:24.085Z,100227.30
2023-05-17T16:18:51.146Z,100230.76
2023-05-17T16:21:21.123Z,100230.58
2023-05-17T16:23:48.026Z,100231.14
2023-05-17T16:26:16.018Z,100234.43
2023-05-17T16:28:42.880Z,100234.35
2023-05-17T16:31:10.142Z,100233.11
2023-05-17T16:33:37.161Z,100230.57
2023-05-17T16:36:05.071Z,100232.71
2023-05-17T16:38:31.897Z,100233.52
2023-05-17T16:41:03.413Z,100230.73
2023-05-17T16:43:30.961Z,100231.16
2023-05-17T16:45:57.792Z,100228.30
2023-05-17T16:48:24.733Z,100228.02
2023-05-17T16:50:52.211Z,100228.45
2023-05-17T16:53:18.965Z,100230.19
2023-05-17T16:55:45.800Z,100228.42
2023-05-17T16:58:13.191Z,100226.95
2023-05-17T17:00:40.166Z,100230.46
2023-05-17T17:03:09.478Z,100226.09
2023-05-17T17:05:36.857Z,100227.84
2023-05-17T17:08:03.699Z,100229.45
2023-05-17T17:11:26.353Z,100234.45
2023-05-17T17:13:53.627Z,100233.63
2023-05-17T17:16:21.230Z,100239.64
2023-05-17T17:18:49.733Z,100237.09
2023-05-17T17:21:17.111Z,100236.54
2023-05-17T17:23:44.549Z,100235.48
2023-05-17T17:26:11.626Z,100236.30
2023-05-17T17:28:38.624Z,100236.80
2023-05-17T17:31:06.282Z,100238.40
2023-05-17T17:33:33.294Z,100240.86
2023-05-17T17:36:01.657Z,100239.69
2023-05-17T17:38:28.520Z,100241.96
2023-05-17T17:40:55.588Z,100244.95
2023-05-17T17:43:22.472Z,100244.88
2023-05-17T17:45:49.258Z,100244.46
2023-05-17T17:48:18.287Z,100248.67
2023-05-17T17:50:45.157Z,100248.80
2023-05-17T17:53:11.953Z,100247.12
2023-05-17T17:55:38.840Z,100250.66
2023-05-17T17:58:05.611Z,100255.61
2023-05-17T18:00:32.518Z,100257.58
2023-05-17T18:02:59.509Z,100257.83
2023-05-17T18:05:26.552Z,100257.04
2023-05-17T18:07:53.315Z,100258.26
2023-05-17T18:10:20.453Z,100260.14
2023-05-17T18:12:47.919Z,100263.11
2023-05-17T18:15:15.934Z,100264.76
2023-05-17T18:17:42.821Z,100265.67
2023-05-17T18:20:09.790Z,100265.07
2023-05-17T18:22:36.577Z,100263.86
2023-05-17T18:25:03.553Z,100264.73
2023-05-17T18:27:31.436Z,100261.05
2023-05-17T18:29:58.309Z,100260.40
2023-05-17T18:32:25.475Z,100264.51
2023-05-17T18:34:55.072Z,100257.13
2023-05-17T18:37:21.987Z,100261.40
2023-05-17T18:39:48.885Z,100259.23
2023-05-17T18:42:17.080Z,100256.96
2023-05-17T18:44:43.891Z,100260.80
2023-05-17T18:47:12.103Z,100257.38
2023-05-17T18:49:44.144Z,100255.92
2023-05-17T18:52:12.090Z,100258.39
2023-05-17T18:54:39.000Z,100261.13
2023-05-17T18:57:05.996Z,100258.73
2023-05-17T18:59:33.062Z,100261.48
2023-05-17T19:02:00.584Z,100260.58
2023-05-17T19:04:28.603Z,100262.05
2023-05-17T19:06:56.721Z,100265.11
2023-05-17T19:09:23.594Z,100264.30
2023-05-17T19:11:50.511Z,100268.55
2023-05-17T19:14:18.230Z,100264.42
2023-05-17T19:16:45.539Z,100265.11
2023-05-17T19:19:12.419Z,100266.23
2023-05-17T19:21:39.548Z,100265.17
2023-05-17T19:24:06.667Z,100265.71
2023-05-17T19:26:33.587Z,100270.05
2023-05-17T19:29:00.592Z,100268.05
2023-05-17T19:31:27.719Z,100269.80
2023-05-17T19:33:54.591Z,100270.10
2023-05-17T19:36:21.482Z,100266.38
2023-05-17T19:38:51.189Z,100266.19
2023-05-17T19:41:21.421Z,100263.05
2023-05-17T19:43:48.245Z,100267.41
2023-05-17T19:46:15.074Z,100269.07
2023-05-17T19:48:41.962Z,100265.20
2023-05-17T19:51:08.947Z,100263.81
2023-05-17T19:53:51.021Z,100267.34
2023-05-17T19:56:21.713Z,100268.05
2023-05-17T19:58:48.564Z,100266.14
2023-05-17T20:01:15.483Z,100268.72
2023-05-17T20:03:42.546Z,100267.96
2023-05-17T20:06:14.920Z,100265.90
2023-05-17T20:08:42.500Z,100267.21
2023-05-17T20:11:09.346Z,100270.25
2023-05-17T20:13:40.070Z,100270.11
2023-05-17T20:16:12.692Z,100275.38
2023-05-17T20:18:42.677Z,100274.83
2023-05-17T20:21:11.273Z,100274.73
2023-05-17T20:23:38.136Z,100280.52
2023-05-17T20:26:05.014Z,100276.79
2023-05-17T20:28:31.758Z,100276.94
2023-05-17T20:30:58.755Z,100281.72
2023-05-17T20:33:26.797Z,100278.45
2023-05-17T20:35:53.872Z,100281.45
2023-05-17T20:38:22.183Z,100280.01
2023-05-17T20:40:51.643Z,100278.52
2023-05-17T20:43:19.170Z,100283.65
2023-05-17T20:45:46.132Z,100282.66
2023-05-17T20:48:13.026Z,100284.68
2023-05-17T20:50:41.436Z,100282.58
2023-05-17T20:53:10.402Z,100288.95
2023-05-17T20:55:37.243Z,100287.17
2023-05-17T20:58:04.129Z,100288.03
2023-05-17T21:00:31.886Z,100289.30
2023-05-17T21:02:59.007Z,100291.59
2023-05-17T21:05:25.959Z,100290.16
2023-05-17T21:07:52.694Z,100292.42
2023-05-17T21:10:19.457Z,100292.78
2023-05-17T21:12:46.202Z,100290.91
2023-05-17T21:15:18.537Z,100290.52
2023-05-17T21:17:45.525Z,100290.77
2023-05-17T21:20:13.504Z,100289.09
2023-05-17T21:22:40.442Z,100291.20
2023-05-17T21:25:08.227Z,100287.65
2023-05-17T21:27:35.125Z,100289.21
2023-05-17T21:30:01.863Z,100287.54
2023-05-17T21:32:28.631Z,100291.23
2023-05-17T21:34:55.417Z,100295.80
2023-05-17T21:37:22.228Z,100293.55
2023-05-17T21:39:48.974Z,100295.83
2023-05-17T21:42:15.770Z,100297.52
2023-05-17T21:44:42.547Z,100300.00
2023-05-17T21:47:09.410Z,100299.98
2023-05-17T21:49:36.236Z,100297.80
2023-05-17T21:52:03.174Z,100297.35
2023-05-17T21:54:30.118Z,100302.58
2023-05-17T21:56:56.923Z,100299.86
2023-05-17T21:59:25.228Z,100295.20
2023-05-17T22:01:54.990Z,100295.41
2023-05-17T22:04:22.015Z,100296.73
2023-05-17T22:06:48.810Z,100295.66
2023-05-17T22:09:15.640Z,100300.80
2023-05-17T22:11:42.508Z,100303.08
2023-05-17T22:14:09.369Z,100308.75
2023-05-17T22:16:38.981Z,100305.64
2023-05-17T22:19:05.955Z,100311.09
2023-05-17T22:21:33.071Z,100307.66
2023-05-17T22:23:59.881Z,100306.27
2023-05-17T22:26:27.817Z,100305.95
2023-05-17T22:28:55.753Z,100310.81
2023-05-17T22:31:23.071Z,100312.09
2023-05-17T22:33:52.358Z,100310.23
2023-05-17T22:36:19.699Z,100312.79
2023-05-17T22:38:46.770Z,100311.10
2023-05-17T22:41:13.821Z,100315.17
2023-05-17T22:43:40.637Z,100314.73
2023-05-17T22:46:07.499Z,100310.75
2023-05-17T22:48:37.499Z,100312.65
2023-05-17T22:51:04.897Z,100312.57
2023-05-17T22:53:31.941Z,100313.43
2023-05-17T22:55:58.925Z,100312.95
2023-05-17T22:58:26.124Z,100317.10
2023-05-17T23:00:53.241Z,100320.58
2023-05-17T23:03:20.473Z,100323.94
2023-05-17T23:05:47.528Z,100324.32
2023-05-17T23:08:15.671Z,100321.74
2023-05-17T23:10:45.785Z,100325.63
2023-05-17T23:13:12.988Z,100323.75
2023-05-17T23:15:40.940Z,100329.59
2023-05-17T23:18:08.153Z,100330.17
2023-05-17T23:20:35.209Z,100334.38
2023-05-17T23:23:02.261Z,100335.58
2023-05-17T23:25:29.688Z,100347.23
2023-05-17T23:27:58.733Z,100343.29
2023-05-17T23:30:26.473Z,100333.56
2023-05-17T23:32:55.290Z,100342.36
2023-05-17T23:35:25.969Z,100341.94
2023-05-17T23:37:52.787Z,100350.17
2023-05-17T23:40:19.885Z,100343.17
2023-05-17T23:42:46.622Z,100338.39
2023-05-17T23:45:13.486Z,100339.02
2023-05-17T23:47:41.071Z,100338.19
2023-05-17T23:50:12.145Z,100344.22
2023-05-17T23:52:39.595Z,100343.79
2023-05-17T23:55:07.401Z,100345.33
2023-05-17T23:57:35.304Z,100346.70
